Time;durP1;ratioP1;P1;durP2;ratioP2;P2;SDS_P1;SDS_P2;PMS_P1;PMS_P2;Temp;Humidity;BMP_temperature;BMP_pressure;BME280_temperature;BME280_humidity;BME280_pressure;Samples;Min_cycle;Max_cycle;Signal;HPM_P1;HPM_P2
2022/07/16 00:03:09;;;;;;;3.00;2.78;;;;;;;19.76;55.09;95965.47;5083550;28;20066;-68
2022/07/16 00:05:34;;;;;;;3.22;2.80;;;;;;;19.80;54.66;95961.41;5085859;28;20024;-69
2022/07/16 00:07:59;;;;;;;2.97;2.75;;;;;;;19.83;54.05;95966.34;5089693;28;20031;-68
2022/07/16 00:10:25;;;;;;;3.13;2.92;;;;;;;19.73;54.18;95965.88;5091170;28;20024;-69
2022/07/16 00:12:51;;;;;;;2.70;2.50;;;;;;;19.72;53.94;95961.53;5090693;28;20521;-68
2022/07/16 00:15:16;;;;;;;3.58;2.60;;;;;;;19.71;54.00;95958.03;5102905;28;20034;-68
2022/07/16 00:17:42;;;;;;;3.05;2.83;;;;;;;19.72;54.10;95957.00;5107416;28;20027;-68
2022/07/16 00:20:08;;;;;;;4.97;2.85;;;;;;;19.67;55.11;95958.59;5094551;28;20076;-68
2022/07/16 00:22:33;;;;;;;3.42;2.60;;;;;;;19.62;57.18;95956.53;5095548;28;20032;-68
2022/07/16 00:24:59;;;;;;;2.92;2.72;;;;;;;19.53;56.16;95949.66;5103789;28;20020;-68
2022/07/16 00:27:24;;;;;;;2.70;2.50;;;;;;;19.44;58.72;95952.47;5092587;28;20016;-68
2022/07/16 00:29:50;;;;;;;2.60;2.45;;;;;;;19.43;57.21;95958.84;5097104;28;20391;-69
2022/07/16 00:32:15;;;;;;;3.38;3.05;;;;;;;19.34;56.74;95957.28;5093245;28;20019;-68
2022/07/16 00:34:41;;;;;;;5.45;2.92;;;;;;;19.26;57.49;95949.41;5088603;28;20023;-68
2022/07/16 00:37:06;;;;;;;5.18;3.35;;;;;;;19.25;56.57;95953.09;5087995;28;20043;-68
2022/07/16 00:39:32;;;;;;;3.42;2.63;;;;;;;19.25;57.20;95948.59;5089874;28;20490;-69
2022/07/16 00:41:57;;;;;;;2.70;2.60;;;;;;;19.25;56.73;95948.59;5096034;28;20062;-69
2022/07/16 00:44:23;;;;;;;2.90;2.70;;;;;;;19.24;57.34;95946.97;5088630;28;20379;-68
2022/07/16 00:46:49;;;;;;;3.00;2.80;;;;;;;19.27;56.20;95951.91;5092419;28;20086;-68
2022/07/16 00:49:16;;;;;;;2.80;2.60;;;;;;;19.28;55.93;95950.91;5089331;28;20024;-68
2022/07/16 00:51:45;;;;;;;3.25;2.95;;;;;;;19.25;56.38;95947.78;5083449;28;20035;-69
2022/07/16 00:54:12;;;;;;;4.50;2.88;;;;;;;19.18;56.23;95940.53;5093571;28;20490;-69
2022/07/16 00:56:38;;;;;;;7.07;2.58;;;;;;;19.24;55.85;95946.97;5107350;28;20031;-69
2022/07/16 00:59:03;;;;;;;2.95;2.75;;;;;;;19.21;56.54;95949.16;5094683;28;20043;-69
2022/07/16 01:01:29;;;;;;;2.95;2.72;;;;;;;19.08;57.67;95948.00;5085605;28;20024;-67
2022/07/16 01:03:54;;;;;;;4.03;2.85;;;;;;;19.06;56.53;95947.38;5085987;28;20086;-69
2022/07/16 01:06:20;;;;;;;3.08;2.80;;;;;;;19.06;56.91;95944.69;5089466;28;20035;-68
2022/07/16 01:08:47;;;;;;;3.25;3.03;;;;;;;19.06;56.53;95952.72;5093948;28;20016;-68
2022/07/16 01:11:14;;;;;;;4.65;3.10;;;;;;;19.04;59.70;95946.72;5093158;28;20032;-69
2022/07/16 01:13:42;;;;;;;3.22;2.92;;;;;;;18.95;58.27;95948.66;5088301;28;20032;-69
2022/07/16 01:16:09;;;;;;;2.83;2.63;;;;;;;18.90;59.14;95949.25;5078464;28;20487;-69
2022/07/16 01:18:36;;;;;;;3.05;2.85;;;;;;;18.92;58.57;95945.56;5091395;28;20056;-69
2022/07/16 01:21:02;;;;;;;3.03;2.75;;;;;;;18.84;58.62;95947.31;5082559;28;20423;-69
2022/07/16 01:23:27;;;;;;;3.20;3.00;;;;;;;18.78;57.88;95942.72;5085257;28;20057;-68
2022/07/16 01:25:53;;;;;;;3.00;2.80;;;;;;;18.81;57.42;95941.53;5082516;28;20031;-69
2022/07/16 01:28:19;;;;;;;2.90;2.70;;;;;;;18.80;57.90;95946.03;5084224;28;20482;-69
2022/07/16 01:30:46;;;;;;;4.22;2.97;;;;;;;18.64;58.35;95946.25;5079868;28;20052;-69
2022/07/16 01:33:18;;;;;;;3.33;3.03;;;;;;;18.66;58.72;95953.06;5073622;28;20606;-69
2022/07/16 01:35:43;;;;;;;3.65;2.92;;;;;;;18.53;58.78;95950.22;5081312;28;20035;-69
2022/07/16 01:38:10;;;;;;;3.60;3.30;;;;;;;18.37;60.81;95945.91;5077731;28;20035;-69
2022/07/16 01:40:36;;;;;;;4.70;3.15;;;;;;;18.26;60.96;95948.03;5083341;28;20095;-69
2022/07/16 01:43:01;;;;;;;3.40;2.97;;;;;;;18.16;61.79;95944.81;5080299;28;20103;-69
2022/07/16 01:45:26;;;;;;;7.43;3.08;;;;;;;18.17;61.14;95941.13;5074871;28;20428;-69
2022/07/16 01:47:52;;;;;;;2.97;2.80;;;;;;;18.21;60.48;95942.41;5081526;28;20050;-69
2022/07/16 01:50:17;;;;;;;3.42;3.08;;;;;;;18.23;59.98;95940.41;5077722;28;20035;-69
2022/07/16 01:52:42;;;;;;;3.30;3.00;;;;;;;18.26;59.74;95950.72;5074770;28;20487;-69
2022/07/16 01:55:08;;;;;;;3.38;3.08;;;;;;;18.20;60.49;95948.75;5072366;28;20121;-69
2022/07/16 01:57:34;;;;;;;3.55;2.88;;;;;;;18.20;59.89;95951.44;5073691;28;20614;-69
2022/07/16 01:59:59;;;;;;;7.25;3.15;;;;;;;18.21;60.26;95947.75;5070327;28;20027;-69
2022/07/16 02:02:24;;;;;;;5.07;3.05;;;;;;;18.20;62.05;95958.59;5081148;28;20111;-68
2022/07/16 02:04:50;;;;;;;4.47;3.03;;;;;;;18.20;60.83;95951.44;5081150;28;20392;-69
2022/07/16 02:07:15;;;;;;;3.65;2.90;;;;;;;18.23;60.11;95951.06;5077361;28;20047;-69
2022/07/16 02:09:40;;;;;;;3.13;2.92;;;;;;;18.17;60.87;95951.78;5079814;28;20419;-69
2022/07/16 02:12:06;;;;;;;2.88;2.72;;;;;;;18.08;61.28;95959.03;5083805;28;20020;-69
2022/07/16 02:14:31;;;;;;;4.72;2.85;;;;;;;18.01;61.70;95958.94;5081647;28;20090;-68
2022/07/16 02:16:57;;;;;;;3.83;3.47;;;;;;;17.91;62.89;95953.03;5087385;28;20044;-69
2022/07/16 02:19:22;;;;;;;2.83;2.63;;;;;;;17.96;62.16;95957.81;5086524;28;20039;-69
2022/07/16 02:21:48;;;;;;;3.53;3.20;;;;;;;17.99;62.25;95952.13;5084190;28;20024;-69
2022/07/16 02:24:13;;;;;;;3.38;3.08;;;;;;;17.96;62.10;95961.28;5082388;28;20020;-69
2022/07/16 02:26:38;;;;;;;2.88;2.67;;;;;;;17.89;61.96;95957.72;5074523;28;20020;-69
2022/07/16 02:29:04;;;;;;;2.83;2.63;;;;;;;17.83;62.54;95951.28;5077566;28;20444;-69
2022/07/16 02:31:29;;;;;;;3.78;3.22;;;;;;;17.78;62.92;95958.97;5077557;28;20036;-69
2022/07/16 02:33:55;;;;;;;3.28;3.08;;;;;;;17.79;62.50;95965.13;5074355;28;20024;-69
2022/07/16 02:36:20;;;;;;;3.20;2.90;;;;;;;17.82;61.66;95964.78;5077572;28;20028;-69
2022/07/16 02:38:45;;;;;;;8.10;3.25;;;;;;;17.84;61.73;95960.91;5072002;28;20036;-69
2022/07/16 02:41:11;;;;;;;3.05;2.85;;;;;;;17.85;61.33;95959.09;5071358;28;20032;-69
2022/07/16 02:43:36;;;;;;;3.22;3.00;;;;;;;17.74;63.03;95963.03;5081397;28;20040;-68
2022/07/16 02:46:02;;;;;;;3.35;3.10;;;;;;;17.62;63.34;95965.28;5080596;28;20028;-69
2022/07/16 02:48:27;;;;;;;3.00;2.80;;;;;;;17.60;62.91;95967.31;5075053;28;20213;-69
2022/07/16 02:50:53;;;;;;;3.20;3.00;;;;;;;17.56;62.74;95969.50;5077116;28;20025;-68
2022/07/16 02:53:18;;;;;;;3.35;3.05;;;;;;;17.53;63.39;95963.69;5076510;28;20430;-69
2022/07/16 02:55:43;;;;;;;3.47;3.17;;;;;;;17.48;64.23;95964.25;5078605;28;20032;-69
2022/07/16 02:58:09;;;;;;;3.50;3.25;;;;;;;17.49;63.58;95957.91;5081993;28;20126;-69
2022/07/16 03:00:34;;;;;;;3.65;3.35;;;;;;;17.42;63.40;95952.47;5075491;28;20024;-68
2022/07/16 03:03:00;;;;;;;3.17;2.88;;;;;;;17.41;64.28;95953.47;5071750;28;20111;-69
2022/07/16 03:05:25;;;;;;;3.65;3.08;;;;;;;17.37;63.82;95956.66;5085014;28;20020;-69
2022/07/16 03:07:51;;;;;;;3.20;3.00;;;;;;;17.30;64.51;95957.38;5079392;28;20120;-68
2022/07/16 03:10:17;;;;;;;3.35;3.05;;;;;;;17.30;64.53;95957.38;5077912;28;20048;-69
2022/07/16 03:12:43;;;;;;;3.60;3.03;;;;;;;17.35;64.27;95958.69;5080873;28;20028;-69
2022/07/16 03:15:11;;;;;;;3.70;3.40;;;;;;;17.33;63.76;95956.19;5079128;28;20028;-68
2022/07/16 03:17:37;;;;;;;3.63;2.90;;;;;;;17.33;63.55;95959.69;5072352;28;20035;-69
2022/07/16 03:20:03;;;;;;;5.03;3.13;;;;;;;17.35;63.60;95956.00;5083401;28;20032;-69
2022/07/16 03:22:28;;;;;;;3.60;3.00;;;;;;;17.37;63.24;95957.50;5090574;28;20107;-69
2022/07/16 03:24:54;;;;;;;3.58;3.38;;;;;;;17.26;64.23;95950.78;5087078;28;20111;-69
2022/07/16 03:27:19;;;;;;;5.03;3.35;;;;;;;17.22;64.56;95949.44;5083492;28;20048;-69
2022/07/16 03:29:45;;;;;;;3.80;3.50;;;;;;;17.19;64.74;95960.44;5078488;28;20020;-69
2022/07/16 03:32:10;;;;;;;3.67;3.33;;;;;;;17.17;65.22;95951.81;5075035;28;20025;-69
2022/07/16 03:34:35;;;;;;;3.65;3.33;;;;;;;17.10;65.05;95961.50;5077212;28;20176;-68
2022/07/16 03:37:01;;;;;;;6.07;3.35;;;;;;;17.09;65.51;95951.88;5078083;28;20031;-69
2022/07/16 03:39:27;;;;;;;7.82;3.15;;;;;;;17.03;66.06;95966.69;5082417;28;20028;-69
2022/07/16 03:41:52;;;;;;;3.60;3.30;;;;;;;16.94;66.28;95965.88;5079822;28;20426;-69
2022/07/16 03:44:17;;;;;;;3.95;3.45;;;;;;;16.88;66.82;95966.59;5083064;28;20127;-68
2022/07/16 03:46:43;;;;;;;9.02;3.63;;;;;;;16.91;67.50;95974.22;5088350;28;20020;-69
2022/07/16 03:49:09;;;;;;;3.55;3.35;;;;;;;16.93;66.14;95968.75;5075657;28;20066;-68
2022/07/16 03:51:34;;;;;;;5.72;3.50;;;;;;;16.89;66.64;95968.25;5077314;28;20078;-69
2022/07/16 03:54:01;;;;;;;3.30;3.10;;;;;;;16.82;65.92;95970.78;5080957;28;20376;-69
2022/07/16 03:56:27;;;;;;;3.20;3.00;;;;;;;16.76;66.10;95971.47;5084050;28;20027;-69
2022/07/16 03:58:53;;;;;;;3.28;3.05;;;;;;;16.81;66.24;95965.66;5082608;28;20044;-69
2022/07/16 04:01:18;;;;;;;3.42;3.13;;;;;;;16.77;67.14;95973.13;5071822;28;20024;-69
2022/07/16 04:03:44;;;;;;;3.38;3.17;;;;;;;16.73;67.03;95970.00;5086266;28;20030;-68
2022/07/16 04:06:09;;;;;;;5.13;3.40;;;;;;;16.75;66.64;95975.97;5083439;28;20081;-68
2022/07/16 04:08:35;;;;;;;3.67;3.38;;;;;;;16.74;67.16;95968.16;5083959;28;20025;-68
2022/07/16 04:11:01;;;;;;;3.47;3.17;;;;;;;16.81;66.21;95965.66;5080918;28;20103;-68
2022/07/16 04:13:26;;;;;;;3.50;3.20;;;;;;;16.89;65.61;95970.91;5072844;28;20012;-68
2022/07/16 04:15:52;;;;;;;3.70;3.40;;;;;;;16.89;65.45;95969.06;5079851;28;20476;-68
2022/07/16 04:18:17;;;;;;;3.75;3.45;;;;;;;16.81;66.63;95974.44;5075499;28;20418;-68
2022/07/16 04:20:43;;;;;;;5.82;3.47;;;;;;;16.80;66.79;95969.28;5082346;28;20024;-68
2022/07/16 04:23:08;;;;;;;4.80;3.40;;;;;;;16.81;66.40;95976.28;5082833;28;20107;-68
2022/07/16 04:25:34;;;;;;;3.65;3.35;;;;;;;16.79;66.54;95978.25;5076764;28;20036;-68
2022/07/16 04:27:59;;;;;;;4.00;3.67;;;;;;;16.78;67.01;95976.59;5083594;28;20469;-68
2022/07/16 04:30:25;;;;;;;3.80;3.40;;;;;;;16.80;66.14;95971.94;5084474;28;20484;-68
2022/07/16 04:32:50;;;;;;;4.28;3.38;;;;;;;16.77;66.39;95978.44;5085859;28;20494;-68
2022/07/16 04:35:16;;;;;;;3.50;3.20;;;;;;;16.72;67.42;95978.16;5084803;28;20114;-68
2022/07/16 04:37:42;;;;;;;6.88;3.60;;;;;;;16.72;69.09;95986.94;5079698;28;20545;-68
2022/07/16 04:40:10;;;;;;;4.80;3.38;;;;;;;16.70;68.30;95982.81;5080657;28;20052;-68
2022/07/16 04:42:40;;;;;;;6.05;3.85;;;;;;;16.78;67.90;95989.91;5078746;28;20442;-68
2022/07/16 04:45:06;;;;;;;3.17;2.97;;;;;;;16.76;67.89;95990.09;5090290;28;20019;-68
2022/07/16 04:47:32;;;;;;;4.30;3.25;;;;;;;16.74;68.30;95997.41;5081584;28;20037;-68
2022/07/16 04:49:57;;;;;;;3.90;3.60;;;;;;;16.77;67.82;95994.41;5074950;28;20028;-68
2022/07/16 04:52:23;;;;;;;3.92;3.53;;;;;;;16.84;68.02;95995.34;5074894;28;20039;-68
2022/07/16 04:54:48;;;;;;;4.15;3.75;;;;;;;16.84;67.95;95998.00;5079778;28;20031;-68
2022/07/16 04:57:13;;;;;;;3.97;3.60;;;;;;;16.79;68.30;96000.38;5073889;28;20420;-68
2022/07/16 04:59:39;;;;;;;7.93;3.22;;;;;;;16.84;68.43;95994.53;5075579;28;20032;-68
2022/07/16 05:04:48;;;;;;;5.93;3.70;;;;;;;16.81;68.58;96001.03;5076094;28;20113;-68
2022/07/16 05:07:14;;;;;;;5.32;3.50;;;;;;;16.79;68.38;95999.53;5079743;28;20070;-68
2022/07/16 05:09:39;;;;;;;3.67;3.35;;;;;;;16.77;68.64;95999.72;5074511;28;20043;-68
2022/07/16 05:12:05;;;;;;;3.70;3.40;;;;;;;16.76;68.56;96000.72;5081336;28;20530;-68
2022/07/16 05:14:30;;;;;;;4.18;3.78;;;;;;;16.78;68.58;95996.06;5077090;28;20039;-68
2022/07/16 05:16:56;;;;;;;3.63;3.25;;;;;;;16.85;68.05;96001.53;5079333;28;20031;-68
2022/07/16 05:19:22;;;;;;;3.80;3.50;;;;;;;16.85;69.60;96001.53;5077258;28;20032;-68
2022/07/16 05:21:48;;;;;;;3.90;3.60;;;;;;;16.94;69.16;96004.97;5078834;28;20644;-67
2022/07/16 05:24:13;;;;;;;4.40;4.00;;;;;;;17.13;68.24;95999.25;5089008;28;20270;-68
2022/07/16 05:26:38;;;;;;;3.60;3.30;;;;;;;17.29;68.06;96002.78;5083307;28;20028;-68
2022/07/16 05:29:04;;;;;;;3.80;3.60;;;;;;;17.43;67.20;96003.84;5084533;28;20556;-68
2022/07/16 05:31:29;;;;;;;4.15;3.50;;;;;;;17.54;66.65;96000.78;5089357;28;20086;-68
2022/07/16 05:33:54;;;;;;;4.40;3.47;;;;;;;17.62;66.52;95997.22;5080685;28;20028;-68
2022/07/16 05:36:20;;;;;;;4.20;3.38;;;;;;;17.79;65.57;96000.56;5078978;28;20060;-68
2022/07/16 05:38:45;;;;;;;3.28;3.08;;;;;;;17.96;65.34;95993.25;5073246;28;20052;-68
2022/07/16 05:41:10;;;;;;;3.78;3.47;;;;;;;18.12;64.05;95994.16;5073541;28;20494;-68
2022/07/16 05:43:36;;;;;;;4.22;3.30;;;;;;;18.26;63.36;95997.84;5084706;28;20153;-68
2022/07/16 05:46:01;;;;;;;6.70;3.13;;;;;;;18.40;62.60;95996.19;5081818;28;20048;-68
2022/07/16 05:48:27;;;;;;;8.98;3.65;;;;;;;18.42;62.27;95996.81;5073775;28;20031;-68
2022/07/16 05:50:52;;;;;;;3.20;2.97;;;;;;;18.42;63.41;96002.16;5078827;28;20028;-68
2022/07/16 05:53:17;;;;;;;4.38;3.35;;;;;;;18.47;62.86;96003.25;5075567;28;20491;-67
2022/07/16 05:55:43;;;;;;;3.50;3.17;;;;;;;18.50;62.29;96003.91;5077044;28;20020;-68
2022/07/16 05:58:08;;;;;;;4.38;2.90;;;;;;;18.58;61.69;96007.31;5073270;28;20048;-68
2022/07/16 06:00:34;;;;;;;3.50;3.20;;;;;;;18.71;60.77;96005.84;5073688;28;20029;-68
2022/07/16 06:02:59;;;;;;;3.38;3.05;;;;;;;18.82;60.73;96013.34;5077925;28;20062;-68
2022/07/16 06:05:25;;;;;;;4.05;3.70;;;;;;;18.89;60.82;96010.78;5075982;28;20025;-68
2022/07/16 06:07:50;;;;;;;4.07;3.00;;;;;;;19.00;60.80;96010.31;5074643;28;20384;-68
2022/07/16 06:10:16;;;;;;;7.13;4.20;;;;;;;19.20;60.29;96009.72;5077611;28;20042;-68
2022/07/16 06:12:41;;;;;;;4.63;3.53;;;;;;;19.48;58.48;96014.34;5076871;28;20501;-67
2022/07/16 06:15:10;;;;;;;7.43;3.75;;;;;;;19.61;58.42;96011.78;5079414;28;20023;-68
2022/07/16 06:17:35;;;;;;;3.30;3.10;;;;;;;19.84;57.23;96016.09;5073441;28;20027;-68
2022/07/16 06:20:01;;;;;;;3.85;3.55;;;;;;;20.07;57.04;96023.06;5084329;28;20024;-68
2022/07/16 06:22:26;;;;;;;3.20;2.90;;;;;;;20.30;56.77;96019.34;5078632;28;20028;-68
2022/07/16 06:24:51;;;;;;;2.97;2.78;;;;;;;20.49;55.68;96023.16;5087510;28;20019;-67
2022/07/16 06:27:17;;;;;;;5.13;4.72;;;;;;;20.68;55.54;96026.16;5083377;28;20066;-68
2022/07/16 06:29:42;;;;;;;5.53;4.47;;;;;;;20.89;54.88;96028.78;5075798;28;20505;-68
2022/07/16 06:32:07;;;;;;;7.45;6.75;;;;;;;21.13;53.75;96031.13;5077755;28;20021;-68
2022/07/16 06:34:33;;;;;;;5.50;5.10;;;;;;;21.39;53.11;96027.69;5080099;28;20022;-68
2022/07/16 06:36:58;;;;;;;5.70;4.80;;;;;;;21.74;52.00;96029.44;5078716;28;20020;-67
2022/07/16 06:39:23;;;;;;;3.22;2.92;;;;;;;21.99;51.35;96024.28;5072782;28;20024;-67
2022/07/16 06:41:49;;;;;;;3.85;3.47;;;;;;;22.35;50.19;96024.06;5082490;28;20055;-67
2022/07/16 06:44:14;;;;;;;4.38;3.78;;;;;;;22.64;47.35;96028.19;5080704;28;20024;-68
2022/07/16 06:46:39;;;;;;;4.57;3.08;;;;;;;22.96;47.30;96022.09;5086032;28;20475;-67
2022/07/16 06:49:05;;;;;;;5.88;2.95;;;;;;;23.26;46.25;96025.09;5079654;28;20020;-68
2022/07/16 06:51:30;;;;;;;5.60;3.10;;;;;;;23.52;46.18;96020.63;5075606;28;20027;-68
2022/07/16 06:53:56;;;;;;;4.28;3.75;;;;;;;23.82;45.94;96021.88;5072054;28;20033;-68
2022/07/16 06:56:21;;;;;;;4.30;3.30;;;;;;;24.08;46.14;96022.72;5078350;28;20031;-68
2022/07/16 06:58:46;;;;;;;3.95;2.90;;;;;;;24.42;44.92;96016.00;5086541;28;20055;-68
2022/07/16 07:01:12;;;;;;;3.20;3.00;;;;;;;24.70;43.05;96024.63;5077941;28;20464;-68
2022/07/16 07:03:39;;;;;;;3.97;2.92;;;;;;;24.95;43.06;96023.75;5090786;28;20026;-69
2022/07/16 07:06:05;;;;;;;3.63;3.33;;;;;;;25.22;43.03;96018.03;5079367;28;20024;-68
2022/07/16 07:08:30;;;;;;;3.65;3.28;;;;;;;25.46;42.67;96024.38;5079636;28;20016;-68
2022/07/16 07:10:55;;;;;;;3.30;3.00;;;;;;;25.68;41.78;96010.41;5072372;28;20023;-68
2022/07/16 07:13:21;;;;;;;3.67;3.13;;;;;;;25.94;41.40;96017.25;5073944;28;20031;-68
2022/07/16 07:15:46;;;;;;;4.53;2.70;;;;;;;26.21;40.37;96016.84;5077913;28;20545;-68
2022/07/16 07:18:11;;;;;;;7.53;6.82;;;;;;;26.33;39.66;96016.03;5078992;28;20031;-68
2022/07/16 07:20:37;;;;;;;5.38;4.97;;;;;;;26.35;40.36;96011.22;5086036;28;20055;-68
2022/07/16 07:23:02;;;;;;;3.30;3.00;;;;;;;26.47;38.67;96012.03;5078537;28;20020;-68
2022/07/16 07:25:28;;;;;;;3.10;2.90;;;;;;;26.61;39.50;96007.22;5084166;28;20020;-68
2022/07/16 07:27:53;;;;;;;4.28;3.88;;;;;;;26.65;37.66;96013.78;5078070;28;20419;-68
2022/07/16 07:30:19;;;;;;;3.80;3.50;;;;;;;26.98;37.70;96008.81;5077904;28;20435;-68
2022/07/16 07:32:44;;;;;;;3.22;2.92;;;;;;;27.19;37.43;96020.03;5084430;28;20058;-68
2022/07/16 07:35:11;;;;;;;3.35;3.03;;;;;;;27.30;37.25;96008.34;5080181;28;20008;-68
2022/07/16 07:37:36;;;;;;;4.45;3.03;;;;;;;27.73;36.02;96007.00;5079960;28;20372;-68
2022/07/16 07:40:03;;;;;;;3.40;3.10;;;;;;;27.79;37.90;96015.22;5080837;28;20103;-68
2022/07/16 07:42:29;;;;;;;3.08;2.78;;;;;;;27.92;35.25;96009.50;5079496;28;20111;-68
2022/07/16 07:44:55;;;;;;;2.58;2.40;;;;;;;28.24;35.50;96011.66;5076702;28;20156;-69
2022/07/16 07:47:20;;;;;;;2.45;2.25;;;;;;;28.67;34.79;96003.88;5084279;28;20032;-68
2022/07/16 07:49:46;;;;;;;4.35;3.08;;;;;;;28.87;33.73;96002.53;5077205;28;20613;-69
2022/07/16 07:52:12;;;;;;;3.40;2.60;;;;;;;28.80;33.85;96008.13;5075588;28;20026;-69
2022/07/16 07:54:37;;;;;;;2.70;2.50;;;;;;;28.82;33.97;96005.19;5081094;28;20024;-68
2022/07/16 07:57:03;;;;;;;2.95;2.75;;;;;;;29.28;33.06;96004.91;5083353;28;20034;-70
2022/07/16 07:59:28;;;;;;;2.92;2.60;;;;;;;29.00;32.98;96001.34;5085698;28;20406;-68
2022/07/16 08:01:54;;;;;;;2.83;2.60;;;;;;;29.19;33.23;96003.72;5085507;28;20078;-71
2022/07/16 08:04:19;;;;;;;2.72;2.53;;;;;;;29.50;31.98;95999.50;5087493;28;20021;-69
2022/07/16 08:06:45;;;;;;;2.58;2.38;;;;;;;29.95;32.38;96005.59;5085017;28;20028;-72
2022/07/16 08:09:10;;;;;;;2.75;2.30;;;;;;;29.84;30.73;96006.59;5080891;28;20224;-70
2022/07/16 08:11:36;;;;;;;2.95;2.50;;;;;;;29.51;31.68;96006.56;5082292;28;20107;-69
2022/07/16 08:14:01;;;;;;;2.78;2.55;;;;;;;29.72;31.94;96015.69;5078652;28;20556;-70
2022/07/16 08:16:27;;;;;;;2.90;2.70;;;;;;;30.02;30.53;96010.84;5082647;28;20092;-70
2022/07/16 08:18:52;;;;;;;3.20;2.47;;;;;;;29.93;30.97;96006.94;5080939;28;20028;-71
2022/07/16 08:21:18;;;;;;;3.17;2.65;;;;;;;29.43;31.72;96010.53;5080443;28;20028;-70
2022/07/16 08:26:27;;;;;;;3.53;2.63;;;;;;;30.22;30.64;96004.75;5088157;28;20031;-69
2022/07/16 08:28:53;;;;;;;4.63;2.72;;;;;;;30.20;30.04;96011.53;5084783;28;20029;-69
2022/07/16 08:31:18;;;;;;;3.85;2.72;;;;;;;30.08;31.88;96004.41;5083400;28;20032;-69
2022/07/16 08:33:44;;;;;;;3.00;2.80;;;;;;;30.46;31.01;95998.94;5084464;28;20047;-72
2022/07/16 08:36:09;;;;;;;4.28;2.50;;;;;;;31.03;29.46;96001.97;5080957;28;20494;-70
2022/07/16 08:38:35;;;;;;;2.72;2.50;;;;;;;31.02;29.11;96000.34;5080271;28;20522;-72
2022/07/16 08:41:02;;;;;;;3.15;2.85;;;;;;;30.79;30.54;95996.97;5080960;28;20081;-71
2022/07/16 08:43:29;;;;;;;3.50;2.90;;;;;;;30.89;30.62;95996.22;5089650;28;20039;-71
2022/07/16 08:45:55;;;;;;;2.60;2.40;;;;;;;31.05;29.93;95994.38;5094044;28;20050;-70
2022/07/16 08:48:22;;;;;;;4.13;2.53;;;;;;;31.14;29.26;95995.50;5102659;28;20032;-71
2022/07/16 08:50:49;;;;;;;5.22;2.60;;;;;;;30.70;31.06;95998.56;5066475;28;20043;-72
2022/07/16 08:53:18;;;;;;;5.20;2.60;;;;;;;31.37;30.32;96001.59;5087223;28;20028;-71
2022/07/16 08:55:44;;;;;;;4.75;2.63;;;;;;;31.55;28.78;95994.00;5081636;28;20032;-72
2022/07/16 08:58:09;;;;;;;4.60;2.45;;;;;;;31.14;28.60;95994.66;5081477;28;20132;-71
2022/07/16 09:00:35;;;;;;;4.25;2.50;;;;;;;31.30;29.37;95988.22;5099458;28;20111;-72
2022/07/16 09:03:00;;;;;;;2.80;2.30;;;;;;;31.66;28.69;95997.56;5093068;28;20514;-71
2022/07/16 09:05:26;;;;;;;2.75;2.55;;;;;;;31.65;27.82;95993.22;5090919;28;20080;-71
2022/07/16 09:07:53;;;;;;;2.35;2.25;;;;;;;31.36;28.69;95989.06;5088117;28;20074;-71
2022/07/16 09:10:18;;;;;;;3.13;2.53;;;;;;;31.88;29.07;96000.06;5079800;28;20415;-71
2022/07/16 09:12:48;;;;;;;4.97;2.60;;;;;;;31.72;28.93;95991.88;5083714;28;20031;-71
2022/07/16 09:15:25;;;;;;;2.80;2.60;;;;;;;32.39;28.22;95998.44;5087466;28;20100;-72
2022/07/16 09:18:12;;;;;;;5.35;2.30;;;;;;;31.79;28.68;95997.03;5081583;28;20031;-71
2022/07/16 09:21:02;;;;;;;3.17;2.22;;;;;;;32.29;27.44;95994.59;5087112;28;20020;-71
2022/07/16 09:23:32;;;;;;;4.15;2.47;;;;;;;32.62;26.48;95993.50;5082184;28;20027;-71
2022/07/16 09:26:00;;;;;;;2.53;2.30;;;;;;;32.54;27.78;95995.66;5090458;28;20487;-72
2022/07/16 09:28:38;;;;;;;5.28;2.72;;;;;;;32.10;28.37;95996.25;5095294;28;20541;-70
2022/07/16 09:31:04;;;;;;;3.42;2.42;;;;;;;31.81;28.67;95989.44;5082987;28;20027;-72
2022/07/16 09:33:30;;;;;;;2.97;2.70;;;;;;;32.09;28.65;95994.63;5081041;28;20487;-72
2022/07/16 09:36:08;;;;;;;2.95;2.63;;;;;;;32.41;28.05;95988.09;5095240;28;20047;-72
2022/07/16 09:38:51;;;;;;;4.63;2.60;;;;;;;31.79;28.24;95988.09;5082353;28;20032;-72
2022/07/16 09:41:18;;;;;;;3.25;2.30;;;;;;;31.76;28.42;95975.78;5088761;28;20108;-72
2022/07/16 09:43:43;;;;;;;3.38;2.33;;;;;;;32.48;27.05;95980.44;5078565;28;20555;-72
2022/07/16 09:46:15;;;;;;;3.15;2.42;;;;;;;32.12;27.58;95980.44;5083956;28;20028;-72
2022/07/16 09:48:42;;;;;;;2.80;2.60;;;;;;;32.75;25.90;95983.91;5081699;28;20041;-72
2022/07/16 09:51:26;;;;;;;2.83;2.47;;;;;;;31.90;27.67;95980.75;5089706;28;20025;-73
2022/07/16 09:53:53;;;;;;;2.50;2.37;;;;;;;31.86;28.00;95975.84;5082038;28;20032;-72
2022/07/16 09:56:27;;;;;;;3.05;2.67;;;;;;;32.35;27.45;95973.66;5090525;28;20031;-72
2022/07/16 09:58:58;;;;;;;4.93;2.53;;;;;;;32.09;27.44;95975.56;5081694;28;20527;-73
2022/07/16 10:01:24;;;;;;;3.40;2.40;;;;;;;31.76;27.35;95975.78;5079936;28;20024;-71
2022/07/16 10:03:50;;;;;;;2.65;2.45;;;;;;;31.75;28.37;95968.72;5079385;28;20153;-73
2022/07/16 10:06:17;;;;;;;2.70;2.50;;;;;;;32.42;26.83;95968.72;5080316;28;20104;-70
2022/07/16 10:08:45;;;;;;;3.17;2.47;;;;;;;32.27;26.84;95974.16;5079971;28;20021;-72
2022/07/16 10:11:11;;;;;;;3.63;2.47;;;;;;;32.14;27.34;95970.09;5079091;28;20031;-72
2022/07/16 10:13:42;;;;;;;3.10;2.42;;;;;;;32.01;27.59;95966.84;5075253;28;20028;-72
2022/07/16 10:16:08;;;;;;;4.30;2.25;;;;;;;32.17;27.44;95966.84;5083969;28;20036;-72
2022/07/16 10:18:38;;;;;;;3.03;2.50;;;;;;;32.56;26.26;95962.72;5078285;28;20198;-72
2022/07/16 10:21:06;;;;;;;2.90;2.70;;;;;;;32.84;25.93;95957.72;5087108;28;20395;-72
2022/07/16 10:23:33;;;;;;;2.40;2.20;;;;;;;32.33;26.79;95954.06;5080684;28;20086;-73
2022/07/16 10:26:04;;;;;;;2.80;2.40;;;;;;;32.67;27.82;95955.31;5086042;28;20024;-72
2022/07/16 10:28:38;;;;;;;2.70;2.50;;;;;;;33.03;25.67;95947.00;5086098;28;20368;-72
2022/07/16 10:31:41;;;;;;;2.53;2.38;;;;;;;32.74;26.96;95960.47;5082065;28;20397;-71
2022/07/16 10:34:13;;;;;;;8.13;2.30;;;;;;;32.96;26.88;95949.22;5080883;28;20114;-71
2022/07/16 10:36:47;;;;;;;2.70;2.45;;;;;;;33.20;27.11;95948.56;5092544;28;20024;-72
2022/07/16 10:39:15;;;;;;;6.28;2.28;;;;;;;33.04;26.46;95948.63;5084086;28;20425;-72
2022/07/16 10:41:51;;;;;;;8.15;2.88;;;;;;;32.86;26.58;95950.91;5081560;28;20578;-72
2022/07/16 10:44:17;;;;;;;2.17;2.08;;;;;;;33.34;25.08;95951.47;5074278;28;20518;-69
2022/07/16 10:47:03;;;;;;;2.53;2.33;;;;;;;32.37;27.84;95940.69;5092558;28;20115;-72
2022/07/16 10:49:30;;;;;;;2.75;2.40;;;;;;;33.03;26.16;95944.28;5073168;28;20028;-72
2022/07/16 10:52:01;;;;;;;2.80;2.60;;;;;;;32.98;25.99;95949.78;5089811;28;20081;-72
2022/07/16 10:54:35;;;;;;;4.82;2.58;;;;;;;33.21;25.40;95947.47;5088085;28;20020;-71
2022/07/16 10:57:10;;;;;;;;;;;;;;;33.63;25.62;95948.88;5090265;28;20020;-71
2022/07/16 10:59:44;;;;;;;2.50;2.30;;;;;;;33.48;25.26;95941.59;5089846;28;19938;-73
2022/07/16 11:02:11;;;;;;;7.90;2.60;;;;;;;33.49;26.29;95937.78;5077704;28;20380;-72
2022/07/16 11:04:40;;;;;;;2.60;2.40;;;;;;;33.54;25.11;95937.75;5089721;28;20071;-72
2022/07/16 11:07:15;;;;;;;2.80;2.58;;;;;;;34.00;25.24;95941.22;5089517;28;20024;-72
2022/07/16 11:09:50;;;;;;;2.90;2.40;;;;;;;33.67;25.33;95939.00;5089868;28;20472;-72
2022/07/16 11:12:19;;;;;;;4.55;2.58;;;;;;;34.13;25.25;95934.28;5071514;28;20031;-72
2022/07/16 11:14:50;;;;;;;3.63;2.38;;;;;;;34.16;25.67;95933.72;5087098;28;20456;-72
2022/07/16 11:17:18;;;;;;;2.63;2.42;;;;;;;34.17;25.45;95931.78;5077513;28;20255;-73
2022/07/16 11:19:49;;;;;;;5.15;2.40;;;;;;;34.35;25.07;95930.22;5084445;28;20273;-72
2022/07/16 11:22:20;;;;;;;4.32;2.30;;;;;;;34.81;25.18;95931.66;5087858;28;20035;-71
2022/07/16 11:24:54;;;;;;;6.15;2.17;;;;;;;35.23;23.52;95931.97;5089670;28;20480;-71
2022/07/16 11:27:27;;;;;;;;;;;;;;;35.79;23.82;95926.78;5089918;28;20383;-72
2022/07/16 11:30:00;;;;;;;3.63;2.58;;;;;;;35.74;23.68;95930.41;5089688;28;19920;-72
2022/07/16 11:32:27;;;;;;;2.63;2.30;;;;;;;35.99;23.41;95931.09;5089859;28;20039;-71
2022/07/16 11:34:53;;;;;;;3.70;2.20;;;;;;;36.20;22.91;95928.00;5090146;28;20024;-72
2022/07/16 11:37:19;;;;;;;2.75;2.28;;;;;;;36.20;22.55;95931.56;5089625;28;20051;-71
2022/07/16 11:39:44;;;;;;;3.05;2.50;;;;;;;35.85;24.30;95920.09;5089509;28;20475;-71